Time;durP1;ratioP1;P1;durP2;ratioP2;P2;SDS_P1;SDS_P2;PMS_P1;PMS_P2;Temp;Humidity;BMP_temperature;BMP_pressure;BME280_temperature;BME280_humidity;BME280_pressure;Samples;Min_cycle;Max_cycle;Signal;HPM_P1;HPM_P2
2020/12/10 00:00:54;;;;;;;32.33;19.63;;;6.00;74.20;;;;;;5028883;28;20056;-83
2020/12/10 00:03:21;;;;;;;34.43;20.50;;;6.00;74.30;;;;;;5030174;28;20060;-83
2020/12/10 00:05:46;;;;;;;33.23;20.17;;;6.00;74.30;;;;;;5021799;28;20396;-84
2020/12/10 00:08:12;;;;;;;30.47;19.87;;;6.00;74.20;;;;;;5024332;28;20029;-83
2020/12/10 00:10:38;;;;;;;33.33;20.87;;;6.00;74.10;;;;;;5019710;28;20051;-84
2020/12/10 00:13:03;;;;;;;30.97;21.07;;;6.00;74.10;;;;;;5027314;28;20049;-84
2020/12/10 00:15:29;;;;;;;31.63;21.47;;;6.00;74.30;;;;;;5028979;28;20042;-84
2020/12/10 00:17:55;;;;;;;32.93;21.13;;;6.00;74.10;;;;;;5021581;28;20456;-84
2020/12/10 00:20:21;;;;;;;33.23;19.87;;;6.00;74.10;;;;;;5031745;28;20435;-84
2020/12/10 00:22:46;;;;;;;35.30;21.90;;;6.00;74.10;;;;;;5023575;28;20026;-83
2020/12/10 00:25:12;;;;;;;34.97;22.50;;;6.00;74.10;;;;;;5026361;28;20087;-83
2020/12/10 00:27:38;;;;;;;34.07;21.57;;;5.90;74.10;;;;;;5029284;28;20120;-83
2020/12/10 00:30:06;;;;;;;35.87;22.40;;;5.90;74.10;;;;;;5040365;28;20544;-83
2020/12/10 00:32:32;;;;;;;36.77;21.60;;;5.90;74.20;;;;;;5022267;28;20026;-83
2020/12/10 00:34:58;;;;;;;33.20;20.70;;;5.90;74.30;;;;;;5018098;28;20049;-83
2020/12/10 00:37:26;;;;;;;36.37;21.53;;;5.80;74.30;;;;;;5024789;28;20053;-83
2020/12/10 00:39:52;;;;;;;38.57;21.53;;;5.80;74.40;;;;;;5025832;28;20075;-83
2020/12/10 00:42:18;;;;;;;36.03;21.23;;;5.90;74.40;;;;;;5031490;28;20049;-83
2020/12/10 00:44:44;;;;;;;40.23;22.77;;;5.90;74.30;;;;;;5017556;28;20032;-82
2020/12/10 00:47:10;;;;;;;34.47;22.10;;;5.90;74.30;;;;;;5030611;28;20040;-82
2020/12/10 00:49:35;;;;;;;37.33;21.47;;;5.80;74.40;;;;;;5025362;28;20025;-82
2020/12/10 00:52:01;;;;;;;34.63;21.00;;;5.80;74.50;;;;;;5019416;28;20033;-83
2020/12/10 00:54:27;;;;;;;30.03;20.43;;;5.90;74.50;;;;;;5028958;28;20384;-83
2020/12/10 00:56:52;;;;;;;33.63;20.90;;;5.90;74.40;;;;;;5025923;28;20044;-82
2020/12/10 00:59:18;;;;;;;37.20;21.13;;;5.90;74.40;;;;;;5021242;28;20453;-83
2020/12/10 01:01:44;;;;;;;30.40;19.23;;;5.80;74.30;;;;;;5023984;28;20032;-83
2020/12/10 01:04:11;;;;;;;28.53;20.03;;;5.80;74.50;;;;;;5021087;28;20080;-82
2020/12/10 01:06:37;;;;;;;33.13;21.03;;;5.80;74.50;;;;;;5025320;28;20033;-82
2020/12/10 01:09:05;;;;;;;31.27;20.57;;;5.80;74.40;;;;;;5029469;28;20041;-83
2020/12/10 01:11:31;;;;;;;33.73;21.53;;;5.80;75.00;;;;;;5025480;28;20029;-83
2020/12/10 01:13:57;;;;;;;32.30;21.33;;;5.80;74.50;;;;;;5022213;28;20029;-82
2020/12/10 01:16:23;;;;;;;30.23;20.20;;;5.80;74.50;;;;;;5021975;28;20045;-83
2020/12/10 01:18:50;;;;;;;32.40;19.90;;;5.80;74.30;;;;;;5027829;28;20028;-83
2020/12/10 01:21:30;;;;;;;30.37;19.20;;;5.80;74.60;;;;;;5028765;28;20029;-83
2020/12/10 01:23:56;;;;;;;30.37;19.53;;;5.80;74.50;;;;;;5026982;28;20040;-83
2020/12/10 01:26:23;;;;;;;31.53;19.90;;;5.90;74.40;;;;;;5027675;28;20030;-83
2020/12/10 01:28:49;;;;;;;34.23;20.40;;;5.90;74.30;;;;;;5022750;28;20056;-83
2020/12/10 01:31:15;;;;;;;31.37;20.13;;;5.80;74.30;;;;;;5023451;28;20061;-83
2020/12/10 01:33:40;;;;;;;31.30;19.70;;;5.90;74.30;;;;;;5028957;28;20029;-83
2020/12/10 01:36:06;;;;;;;29.50;19.57;;;5.80;74.30;;;;;;5029149;28;20399;-83
2020/12/10 01:38:32;;;;;;;29.90;20.17;;;5.80;74.30;;;;;;5019559;28;20133;-83
2020/12/10 01:40:57;;;;;;;34.10;20.13;;;5.80;74.30;;;;;;5013754;28;20510;-83
2020/12/10 01:43:23;;;;;;;30.17;19.20;;;5.80;74.30;;;;;;5029412;28;20060;-83
2020/12/10 01:45:49;;;;;;;30.13;19.87;;;5.90;74.30;;;;;;5028578;28;20492;-83
2020/12/10 01:48:14;;;;;;;29.47;19.37;;;5.80;74.20;;;;;;5030308;28;20120;-83
2020/12/10 01:50:40;;;;;;;35.43;20.10;;;5.80;74.30;;;;;;5030276;28;20057;-83
2020/12/10 01:53:06;;;;;;;29.07;19.27;;;5.80;74.30;;;;;;5030367;28;20022;-82
2020/12/10 01:55:31;;;;;;;29.07;19.20;;;5.80;74.30;;;;;;5022823;28;20067;-83
2020/12/10 01:57:59;;;;;;;28.73;18.20;;;5.80;74.40;;;;;;5023143;28;20427;-83
2020/12/10 02:00:25;;;;;;;28.43;19.43;;;5.80;74.40;;;;;;5019966;28;20034;-83
2020/12/10 02:02:57;;;;;;;31.90;19.97;;;5.80;74.30;;;;;;5022923;28;20392;-82
2020/12/10 02:05:24;;;;;;;29.50;19.42;;;5.80;74.30;;;;;;5026736;28;20033;-83
2020/12/10 02:07:50;;;;;;;29.50;19.43;;;5.80;74.30;;;;;;5023259;28;20500;-83
2020/12/10 02:10:15;;;;;;;29.80;18.77;;;5.80;74.30;;;;;;5021765;28;20036;-83
2020/12/10 02:12:41;;;;;;;28.93;19.77;;;5.80;74.30;;;;;;5028934;28;20449;-83
2020/12/10 02:15:08;;;;;;;32.13;21.20;;;5.80;74.30;;;;;;5020553;28;20029;-83
2020/12/10 02:17:34;;;;;;;31.07;20.10;;;5.80;74.30;;;;;;5019956;28;20028;-83
2020/12/10 02:20:00;;;;;;;33.73;22.17;;;5.80;74.30;;;;;;5020501;28;20029;-83
2020/12/10 02:22:26;;;;;;;36.77;22.93;;;5.80;74.50;;;;;;5022681;28;20077;-83
2020/12/10 02:24:52;;;;;;;34.53;21.03;;;5.80;74.50;;;;;;5019382;28;20157;-83
2020/12/10 02:27:17;;;;;;;40.30;22.13;;;5.80;74.30;;;;;;5041616;28;20145;-83
2020/12/10 02:29:43;;;;;;;35.17;20.50;;;5.80;74.30;;;;;;5024680;28;20026;-83
2020/12/10 02:32:09;;;;;;;32.47;21.37;;;5.80;74.40;;;;;;5024178;28;20034;-83
2020/12/10 02:34:34;;;;;;;34.27;21.20;;;5.80;74.40;;;;;;5027389;28;20439;-83
2020/12/10 02:37:00;;;;;;;32.27;21.53;;;5.80;74.20;;;;;;5018801;28;20028;-83
2020/12/10 02:39:26;;;;;;;35.13;21.27;;;5.80;74.20;;;;;;5029250;28;20057;-83
2020/12/10 02:41:51;;;;;;;32.60;20.93;;;5.80;74.30;;;;;;5023224;28;20436;-82
2020/12/10 02:44:17;;;;;;;31.53;20.37;;;5.80;74.30;;;;;;5024274;28;20116;-82
2020/12/10 02:46:43;;;;;;;30.77;20.60;;;5.80;74.30;;;;;;5026070;28;20061;-83
2020/12/10 02:49:09;;;;;;;29.63;19.43;;;5.80;74.30;;;;;;5022326;28;20079;-82
2020/12/10 02:51:34;;;;;;;28.57;18.20;;;5.80;74.20;;;;;;5024122;28;20088;-82
2020/12/10 02:54:00;;;;;;;24.30;16.03;;;5.80;74.30;;;;;;5026085;28;20033;-82
2020/12/10 02:56:26;;;;;;;21.90;16.30;;;5.80;74.80;;;;;;5022371;28;20025;-82
2020/12/10 02:58:51;;;;;;;23.53;15.30;;;5.80;74.20;;;;;;5026870;28;20072;-82
2020/12/10 03:01:17;;;;;;;22.27;14.93;;;5.80;74.20;;;;;;5028280;28;20040;-83
2020/12/10 03:03:45;;;;;;;25.30;15.53;;;5.80;74.10;;;;;;5022263;28;20041;-83
2020/12/10 03:06:10;;;;;;;24.23;17.23;;;5.80;74.10;;;;;;5020226;28;20167;-83
2020/12/10 03:08:36;;;;;;;25.13;16.83;;;5.80;74.10;;;;;;5022892;28;20124;-83
2020/12/10 03:11:03;;;;;;;22.50;16.40;;;5.80;74.20;;;;;;5027355;28;20029;-83
2020/12/10 03:13:29;;;;;;;26.10;16.87;;;5.80;74.10;;;;;;5021400;28;20294;-83
2020/12/10 03:15:55;;;;;;;23.53;16.07;;;5.80;74.20;;;;;;5021796;28;20030;-80
2020/12/10 03:18:20;;;;;;;26.53;17.53;;;5.80;74.20;;;;;;5018546;28;20384;-80
2020/12/10 03:20:46;;;;;;;28.30;18.13;;;5.80;74.10;;;;;;5022632;28;20037;-80
2020/12/10 03:23:12;;;;;;;27.40;16.13;;;5.70;74.10;;;;;;5019717;28;20492;-83
2020/12/10 03:25:38;;;;;;;23.83;17.00;;;5.70;74.40;;;;;;5021582;28;20057;-83
2020/12/10 03:28:04;;;;;;;25.27;17.70;;;5.80;74.40;;;;;;5029125;28;20043;-83
2020/12/10 03:30:29;;;;;;;26.67;17.60;;;5.80;74.30;;;;;;5019018;28;20575;-83
2020/12/10 03:32:55;;;;;;;23.80;15.97;;;5.80;74.20;;;;;;5029906;28;20034;-83
2020/12/10 03:35:21;;;;;;;22.07;16.20;;;5.80;74.20;;;;;;5024657;28;20026;-83
2020/12/10 03:37:47;;;;;;;22.93;16.13;;;5.80;74.20;;;;;;5032254;28;20412;-83
2020/12/10 03:40:12;;;;;;;25.33;16.83;;;5.80;74.30;;;;;;5030355;28;20475;-83
2020/12/10 03:42:38;;;;;;;25.97;16.57;;;5.80;74.20;;;;;;5019854;28;20033;-83
2020/12/10 03:45:05;;;;;;;24.23;17.43;;;5.80;74.20;;;;;;5029426;28;20025;-83
2020/12/10 03:47:30;;;;;;;23.80;17.13;;;5.80;74.30;;;;;;5021286;28;20029;-83
2020/12/10 03:49:56;;;;;;;22.77;16.43;;;5.80;74.30;;;;;;5026761;28;20029;-83
2020/12/10 03:52:22;;;;;;;24.30;16.63;;;5.80;74.10;;;;;;5019788;28;20042;-83
2020/12/10 03:54:47;;;;;;;26.80;16.67;;;5.80;74.10;;;;;;5023417;28;20090;-83
2020/12/10 03:57:13;;;;;;;23.70;17.00;;;5.80;74.10;;;;;;5022364;28;20017;-81
2020/12/10 03:59:39;;;;;;;30.10;17.33;;;5.80;74.10;;;;;;5021738;28;20026;-81
2020/12/10 04:02:05;;;;;;;23.87;17.47;;;5.80;74.00;;;;;;5014818;28;20033;-81
2020/12/10 04:04:30;;;;;;;25.13;17.60;;;5.80;74.00;;;;;;5026781;28;20178;-81
2020/12/10 04:06:56;;;;;;;24.97;16.63;;;5.80;74.10;;;;;;5015124;28;20108;-81
2020/12/10 04:09:22;;;;;;;22.63;16.20;;;5.80;74.10;;;;;;5015190;28;20037;-81
2020/12/10 04:11:47;;;;;;;24.77;16.43;;;5.80;74.10;;;;;;5030439;28;20025;-80
2020/12/10 04:14:13;;;;;;;24.53;17.17;;;5.80;74.10;;;;;;5025232;28;20021;-81
2020/12/10 04:16:39;;;;;;;23.30;16.93;;;5.80;74.10;;;;;;5029071;28;20419;-81
2020/12/10 04:19:05;;;;;;;24.70;16.43;;;5.80;74.00;;;;;;5022015;28;20026;-81
2020/12/10 04:21:30;;;;;;;26.40;18.00;;;5.80;74.10;;;;;;5027994;28;20057;-81
2020/12/10 04:23:56;;;;;;;27.00;18.03;;;5.80;74.20;;;;;;5021150;28;20088;-81
2020/12/10 04:26:22;;;;;;;25.97;17.40;;;5.80;74.20;;;;;;5022764;28;20104;-81
2020/12/10 04:28:47;;;;;;;27.17;18.40;;;5.80;74.10;;;;;;5021140;28;20021;-81
2020/12/10 04:31:16;;;;;;;26.77;18.00;;;5.70;74.10;;;;;;5033535;28;20079;-81
2020/12/10 04:33:41;;;;;;;27.93;17.90;;;5.70;74.30;;;;;;5029951;28;20031;-81
2020/12/10 04:36:07;;;;;;;25.73;17.83;;;5.70;74.30;;;;;;5031942;28;20499;-81
2020/12/10 04:38:33;;;;;;;28.70;18.40;;;5.70;74.30;;;;;;5026965;28;20022;-81
2020/12/10 04:41:00;;;;;;;25.53;17.43;;;5.70;74.20;;;;;;5024489;28;20038;-81
2020/12/10 04:43:26;;;;;;;26.70;17.50;;;5.70;74.20;;;;;;5021454;28;20473;-81
2020/12/10 04:45:57;;;;;;;22.87;16.37;;;5.70;74.20;;;;;;5030049;28;20025;-81
2020/12/10 04:48:26;;;;;;;26.60;18.17;;;5.80;74.20;;;;;;5028291;28;20051;-81
2020/12/10 04:50:54;;;;;;;24.93;17.70;;;5.80;74.20;;;;;;5029300;28;20033;-81
2020/12/10 04:53:22;;;;;;;22.93;16.50;;;5.80;74.20;;;;;;5025823;28;20037;-82
2020/12/10 04:55:48;;;;;;;24.03;16.43;;;5.70;74.20;;;;;;5030613;28;20435;-81
2020/12/10 04:58:14;;;;;;;23.53;16.43;;;5.80;74.30;;;;;;5023997;28;20456;-81
2020/12/10 05:00:40;;;;;;;24.47;16.67;;;5.80;74.30;;;;;;5022554;28;20083;-82
2020/12/10 05:03:06;;;;;;;21.33;15.20;;;5.80;74.20;;;;;;5027739;28;20030;-81
2020/12/10 05:05:33;;;;;;;23.60;16.23;;;5.80;74.10;;;;;;5024162;28;20475;-80
2020/12/10 05:08:00;;;;;;;23.00;15.93;;;5.80;74.20;;;;;;5025252;28;20401;-81
2020/12/10 05:10:26;;;;;;;21.97;15.07;;;5.80;74.20;;;;;;5025882;28;20022;-80
2020/12/10 05:13:08;;;;;;;23.47;16.93;;;5.70;74.10;;;;;;5027795;28;20072;-80
2020/12/10 05:15:36;;;;;;;25.38;16.80;;;5.70;74.10;;;;;;5029731;28;20026;-81
2020/12/10 05:18:11;;;;;;;24.03;16.60;;;5.70;74.30;;;;;;5024445;28;20197;-79
2020/12/10 05:20:42;;;;;;;22.43;16.43;;;5.70;74.30;;;;;;5021504;28;20116;-79
2020/12/10 05:23:08;;;;;;;24.03;16.53;;;5.60;74.40;;;;;;5020298;28;20029;-79
2020/12/10 05:25:48;;;;;;;24.90;17.60;;;5.60;74.50;;;;;;5016465;28;20037;-79
2020/12/10 05:28:14;;;;;;;24.63;17.33;;;5.70;74.50;;;;;;5030994;28;20025;-79
2020/12/10 05:30:42;;;;;;;25.23;18.20;;;5.70;74.40;;;;;;5030242;28;20715;-80
2020/12/10 05:33:10;;;;;;;26.90;17.97;;;5.70;74.40;;;;;;5030881;28;20534;-79
2020/12/10 05:35:41;;;;;;;24.83;17.40;;;5.70;74.30;;;;;;5031467;28;20064;-79
2020/12/10 05:38:13;;;;;;;30.40;18.33;;;5.70;74.30;;;;;;5023957;28;20025;-79
2020/12/10 05:40:39;;;;;;;22.65;16.23;;;5.70;74.30;;;;;;5021802;28;20029;-80
2020/12/10 05:43:06;;;;;;;22.90;16.53;;;5.70;74.20;;;;;;5031579;28;20067;-80
2020/12/10 05:45:38;;;;;;;25.27;18.13;;;5.70;74.20;;;;;;5025769;28;20111;-80
2020/12/10 05:48:04;;;;;;;25.67;17.47;;;5.70;74.20;;;;;;5021474;28;20029;-80
2020/12/10 05:50:33;;;;;;;23.40;17.23;;;5.70;74.10;;;;;;5026203;28;20026;-80
2020/12/10 05:53:08;;;;;;;26.70;17.80;;;5.70;74.20;;;;;;5017868;28;20033;-80
2020/12/10 05:55:41;;;;;;;26.13;18.93;;;5.70;74.10;;;;;;5031595;28;20053;-80
2020/12/10 05:58:07;;;;;;;29.63;19.43;;;5.70;74.10;;;;;;5027445;28;20104;-80
2020/12/10 06:00:35;;;;;;;28.10;18.87;;;5.70;74.30;;;;;;5041825;28;20030;-80
2020/12/10 06:03:01;;;;;;;29.70;20.43;;;5.70;74.30;;;;;;5025012;28;20928;-80
2020/12/10 06:05:28;;;;;;;28.07;20.03;;;5.70;74.20;;;;;;5030037;28;20116;-80
2020/12/10 06:08:01;;;;;;;26.07;18.67;;;5.70;74.20;;;;;;5044445;28;20036;-80
2020/12/10 06:10:27;;;;;;;;;;;5.70;74.10;;;;;;5028219;28;20119;-79
2020/12/10 06:12:52;;;;;;;26.27;18.47;;;5.70;74.30;;;;;;5021760;28;19917;-80
2020/12/10 06:15:23;;;;;;;28.07;19.50;;;5.60;74.10;;;;;;5022855;28;20022;-80
2020/12/10 06:18:06;;;;;;;28.70;18.70;;;5.60;74.30;;;;;;5021342;28;20492;-79
2020/12/10 06:20:34;;;;;;;24.70;17.60;;;5.60;74.40;;;;;;5027396;28;20391;-79
2020/12/10 06:23:26;;;;;;;26.53;18.17;;;5.60;74.30;;;;;;5026552;28;20483;-79
2020/12/10 06:25:52;;;;;;;25.70;17.70;;;5.70;74.40;;;;;;5023039;28;20024;-80
2020/12/10 06:28:19;;;;;;;25.60;18.73;;;5.70;74.40;;;;;;5029092;28;20029;-79
2020/12/10 06:31:05;;;;;;;24.00;18.00;;;5.70;74.40;;;;;;5030131;28;20065;-79
2020/12/10 06:33:45;;;;;;;26.57;18.10;;;5.70;74.30;;;;;;5029894;28;20032;-79
2020/12/10 06:36:26;;;;;;;26.17;19.37;;;5.70;74.30;;;;;;5029333;28;20032;-79
2020/12/10 06:38:53;;;;;;;31.00;21.53;;;5.70;74.20;;;;;;5029699;28;20017;-79
2020/12/10 06:41:19;;;;;;;32.67;22.43;;;5.70;74.20;;;;;;5019099;28;20055;-79
2020/12/10 06:43:45;;;;;;;28.43;19.03;;;5.70;74.10;;;;;;5016061;28;20104;-79
2020/12/10 06:46:11;;;;;;;25.87;18.67;;;5.70;74.10;;;;;;5025405;28;20037;-79
2020/12/10 06:48:44;;;;;;;35.77;19.00;;;5.60;74.20;;;;;;5023109;28;20076;-79
2020/12/10 06:51:11;;;;;;;27.20;18.53;;;5.60;74.30;;;;;;5029332;28;20120;-80
2020/12/10 06:53:37;;;;;;;27.87;19.00;;;5.60;74.40;;;;;;5023270;28;20030;-79
2020/12/10 06:56:06;;;;;;;28.97;20.37;;;5.60;74.50;;;;;;5031686;28;20028;-79
2020/12/10 06:58:35;;;;;;;34.57;21.10;;;5.70;74.50;;;;;;5015208;28;20026;-79
2020/12/10 07:01:22;;;;;;;31.63;20.53;;;5.60;74.40;;;;;;5017162;28;20484;-79
2020/12/10 07:03:51;;;;;;;35.63;20.40;;;5.70;74.40;;;;;;5026372;28;20392;-79
2020/12/10 07:06:21;;;;;;;29.77;20.37;;;5.70;74.20;;;;;;5022208;28;20040;-79
2020/12/10 07:09:04;;;;;;;29.77;21.53;;;5.60;74.10;;;;;;5029373;28;20048;-80
2020/12/10 07:11:37;;;;;;;34.43;23.00;;;5.60;74.30;;;;;;5025822;28;20049;-80
2020/12/10 07:14:28;;;;;;;35.67;23.53;;;5.60;74.50;;;;;;5023450;28;20116;-79
2020/12/10 07:16:55;;;;;;;32.90;21.87;;;5.60;74.40;;;;;;5024785;28;20050;-79
2020/12/10 07:19:21;;;;;;;34.60;22.80;;;5.70;74.30;;;;;;5025692;28;20774;-80
2020/12/10 07:21:47;;;;;;;43.83;23.00;;;5.70;74.30;;;;;;5023399;28;20384;-80
2020/12/10 07:24:12;;;;;;;34.03;23.87;;;5.70;74.30;;;;;;5019165;28;20041;-80
2020/12/10 07:26:40;;;;;;;33.20;22.80;;;5.70;74.20;;;;;;5018723;28;20037;-80
2020/12/10 07:29:06;;;;;;;36.47;23.13;;;5.70;74.10;;;;;;5027529;28;20075;-80
2020/12/10 07:31:32;;;;;;;34.60;21.47;;;5.70;74.20;;;;;;5043982;28;20030;-80
2020/12/10 07:33:58;;;;;;;36.17;21.57;;;5.70;74.00;;;;;;5016778;28;20519;-80
2020/12/10 07:36:25;;;;;;;31.13;21.40;;;5.70;74.10;;;;;;5019310;28;20021;-80
2020/12/10 07:38:50;;;;;;;36.07;23.77;;;5.80;74.10;;;;;;5030003;28;20109;-81
2020/12/10 07:41:16;;;;;;;29.43;21.47;;;5.80;74.00;;;;;;5030573;28;20124;-80
2020/12/10 07:43:45;;;;;;;28.03;20.23;;;5.80;74.00;;;;;;5031424;28;20647;-80
2020/12/10 07:46:11;;;;;;;29.07;21.07;;;5.80;73.90;;;;;;5016982;28;20042;-81
2020/12/10 07:48:38;;;;;;;33.97;22.27;;;5.80;73.90;;;;;;5026585;28;20180;-81
2020/12/10 07:51:03;;;;;;;42.27;27.10;;;5.90;73.90;;;;;;5011243;28;20528;-80
2020/12/10 07:53:29;;;;;;;35.23;23.47;;;5.90;73.70;;;;;;5013401;28;20100;-81
2020/12/10 07:55:59;;;;;;;30.73;22.23;;;5.80;73.70;;;;;;5030176;28;20369;-81
2020/12/10 07:58:48;;;;;;;32.47;22.50;;;5.80;73.60;;;;;;5034731;28;20037;-81
2020/12/10 08:01:14;;;;;;;35.73;22.33;;;5.80;74.00;;;;;;5044902;28;20026;-80
2020/12/10 08:03:51;;;;;;;32.07;22.17;;;5.90;73.80;;;;;;5030478;28;20065;-79
2020/12/10 08:06:18;;;;;;;36.03;23.70;;;5.90;73.80;;;;;;5029844;28;20030;-81
2020/12/10 08:09:06;;;;;;;32.00;23.17;;;5.80;73.80;;;;;;5030889;28;20028;-80
2020/12/10 08:11:31;;;;;;;32.17;22.17;;;5.90;74.10;;;;;;5026945;28;20072;-80
2020/12/10 08:14:01;;;;;;;38.10;25.07;;;5.90;74.30;;;;;;5028159;28;20033;-80
2020/12/10 08:16:43;;;;;;;38.07;24.50;;;5.90;73.80;;;;;;5026704;28;20072;-80
2020/12/10 08:19:17;;;;;;;40.67;26.47;;;5.90;73.70;;;;;;5018828;28;20097;-80
2020/12/10 08:21:45;;;;;;;40.53;25.97;;;5.90;73.60;;;;;;5047908;28;20068;-80
2020/12/10 08:24:12;;;;;;;54.90;35.67;;;5.90;73.60;;;;;;5018875;28;20084;-80
2020/12/10 08:26:39;;;;;;;118.47;70.80;;;5.90;73.50;;;;;;5033269;28;20030;-80
2020/12/10 08:29:05;;;;;;;78.77;46.60;;;5.90;73.50;;;;;;5025550;28;20540;-79
2020/12/10 08:31:33;;;;;;;73.23;45.17;;;5.90;73.60;;;;;;5020979;28;20117;-81
2020/12/10 08:33:59;;;;;;;52.07;34.03;;;6.00;73.50;;;;;;5031853;28;20848;-80
2020/12/10 08:36:32;;;;;;;47.77;31.23;;;5.90;73.30;;;;;;5025148;28;20026;-80
2020/12/10 08:39:00;;;;;;;42.40;26.87;;;6.00;73.50;;;;;;5024529;28;20039;-80
2020/12/10 08:41:28;;;;;;;36.90;25.73;;;6.10;73.40;;;;;;5022518;28;20151;-80
2020/12/10 08:43:56;;;;;;;32.40;24.23;;;6.10;73.20;;;;;;5023518;28;20510;-80
2020/12/10 08:46:22;;;;;;;33.77;24.00;;;6.20;73.10;;;;;;5028796;28;20108;-80
2020/12/10 08:48:48;;;;;;;31.60;22.87;;;6.20;73.00;;;;;;5026668;28;20125;-80
2020/12/10 08:51:14;;;;;;;34.57;23.83;;;6.20;73.00;;;;;;5034632;28;20021;-80
2020/12/10 08:53:52;;;;;;;30.27;22.23;;;6.30;72.90;;;;;;5025019;28;20052;-80
2020/12/10 08:56:26;;;;;;;32.60;23.47;;;6.30;72.80;;;;;;5032695;28;20037;-80
2020/12/10 08:58:52;;;;;;;29.33;22.17;;;6.40;72.90;;;;;;5024930;28;20018;-80
2020/12/10 09:01:17;;;;;;;34.47;23.13;;;6.40;72.80;;;;;;5029044;28;20045;-80
2020/12/10 09:03:44;;;;;;;31.80;22.83;;;6.40;72.70;;;;;;5022696;28;20120;-80
2020/12/10 09:06:10;;;;;;;31.50;24.10;;;6.40;72.70;;;;;;5019184;28;20519;-80
2020/12/10 09:08:35;;;;;;;36.30;25.27;;;6.40;72.50;;;;;;5023254;28;20025;-81
2020/12/10 09:11:01;;;;;;;35.20;24.83;;;6.40;72.50;;;;;;5027627;28;20232;-80
2020/12/10 09:13:27;;;;;;;31.03;24.10;;;6.50;72.40;;;;;;5027098;28;20029;-80
2020/12/10 09:15:53;;;;;;;32.70;23.73;;;6.50;72.30;;;;;;5030435;28;20033;-81
2020/12/10 09:18:19;;;;;;;32.00;22.87;;;6.50;72.30;;;;;;5032939;28;20096;-80
2020/12/10 09:20:45;;;;;;;30.83;22.33;;;6.40;72.20;;;;;;5024739;28;20125;-80
2020/12/10 09:23:11;;;;;;;31.90;23.60;;;6.50;72.20;;;;;;5028190;28;20037;-80
2020/12/10 09:25:40;;;;;;;30.77;22.83;;;6.40;72.20;;;;;;5026128;28;20621;-80
2020/12/10 09:28:08;;;;;;;33.70;23.07;;;6.50;72.20;;;;;;5031291;28;20052;-81
2020/12/10 09:30:34;;;;;;;35.40;24.77;;;6.50;72.20;;;;;;5023962;28;20087;-80
2020/12/10 09:32:59;;;;;;;34.93;25.57;;;6.50;72.00;;;;;;5029462;28;20427;-80
2020/12/10 09:35:26;;;;;;;34.80;25.83;;;6.50;71.90;;;;;;5020018;28;20033;-80
2020/12/10 09:37:52;;;;;;;36.23;25.77;;;6.60;71.90;;;;;;5031732;28;20025;-80
2020/12/10 09:40:18;;;;;;;35.97;24.73;;;6.70;71.80;;;;;;5020305;28;20060;-80
2020/12/10 09:42:46;;;;;;;33.27;24.43;;;6.70;71.80;;;;;;5044778;28;20496;-80
2020/12/10 09:45:12;;;;;;;32.90;23.70;;;6.70;71.70;;;;;;5031902;28;20036;-80
2020/12/10 09:47:40;;;;;;;28.67;21.50;;;6.80;71.70;;;;;;5030598;28;20563;-80
2020/12/10 09:50:07;;;;;;;32.27;22.33;;;6.80;71.60;;;;;;5030918;28;20480;-80
2020/12/10 09:52:38;;;;;;;32.00;22.73;;;6.80;71.50;;;;;;5016010;28;20061;-80
2020/12/10 09:55:21;;;;;;;28.67;21.73;;;6.90;71.50;;;;;;5027171;28;20061;-80
2020/12/10 09:57:47;;;;;;;29.03;20.20;;;6.90;71.30;;;;;;5017803;28;20018;-80
2020/12/10 10:00:12;;;;;;;30.57;22.60;;;6.90;71.10;;;;;;5025829;28;20795;-80
2020/12/10 10:02:38;;;;;;;29.73;21.10;;;7.00;71.20;;;;;;5015510;28;20057;-80
2020/12/10 10:05:04;;;;;;;30.10;22.53;;;7.00;71.00;;;;;;5017207;28;20037;-80
2020/12/10 10:07:30;;;;;;;29.10;23.00;;;7.00;70.90;;;;;;5029173;28;20053;-80
2020/12/10 10:09:55;;;;;;;29.13;21.77;;;7.00;70.90;;;;;;5024652;28;20079;-80
2020/12/10 10:12:21;;;;;;;29.93;22.07;;;7.00;70.90;;;;;;5023336;28;20507;-81
2020/12/10 10:14:48;;;;;;;28.23;21.90;;;7.00;70.90;;;;;;5024122;28;20464;-80
2020/12/10 10:17:14;;;;;;;31.47;23.00;;;7.00;70.80;;;;;;5023280;28;20033;-80
2020/12/10 10:19:39;;;;;;;27.87;21.33;;;7.00;70.70;;;;;;5022935;28;20898;-80
2020/12/10 10:22:05;;;;;;;27.63;21.23;;;6.90;70.70;;;;;;5027480;28;20063;-80
2020/12/10 10:24:32;;;;;;;30.77;22.57;;;7.00;70.70;;;;;;5027281;28;20034;-80
2020/12/10 10:26:58;;;;;;;28.03;21.90;;;7.00;70.50;;;;;;5018295;28;20521;-80
2020/12/10 10:29:24;;;;;;;30.77;22.27;;;7.10;70.50;;;;;;5024667;28;20033;-80
2020/12/10 10:31:51;;;;;;;32.17;23.53;;;7.20;70.30;;;;;;5027103;28;20814;-80
2020/12/10 10:34:18;;;;;;;30.13;22.90;;;7.10;70.00;;;;;;5026259;28;20033;-81
2020/12/10 10:36:44;;;;;;;35.27;25.73;;;7.10;70.30;;;;;;5026845;28;20030;-80
2020/12/10 10:39:10;;;;;;;34.73;24.73;;;7.10;69.90;;;;;;5030684;28;20034;-80
2020/12/10 10:41:44;;;;;;;32.50;22.93;;;7.00;70.00;;;;;;5029759;28;20483;-80
2020/12/10 10:44:10;;;;;;;34.23;23.97;;;7.00;70.00;;;;;;5029152;28;20037;-80
2020/12/10 10:46:36;;;;;;;32.67;23.57;;;7.00;70.20;;;;;;5017807;28;20034;-80
2020/12/10 10:49:02;;;;;;;31.23;21.87;;;7.10;69.90;;;;;;5027096;28;20037;-80
2020/12/10 10:51:28;;;;;;;32.67;22.50;;;7.00;69.70;;;;;;5020172;28;20026;-80
2020/12/10 10:53:54;;;;;;;30.03;22.63;;;7.10;69.70;;;;;;5029099;28;20087;-81
2020/12/10 10:56:21;;;;;;;28.70;21.23;;;7.00;69.60;;;;;;5024981;28;20033;-81
2020/12/10 10:58:47;;;;;;;28.07;21.43;;;7.00;69.80;;;;;;5018535;28;20748;-81
2020/12/10 11:01:13;;;;;;;28.77;21.00;;;7.10;69.70;;;;;;5023220;28;20038;-81
2020/12/10 11:03:40;;;;;;;29.83;21.97;;;7.10;69.60;;;;;;5018604;28;20049;-81
2020/12/10 11:06:06;;;;;;;31.07;22.00;;;7.20;69.40;;;;;;5016269;28;20084;-81
2020/12/10 11:08:32;;;;;;;32.97;23.03;;;7.10;69.00;;;;;;5027245;28;20033;-81
2020/12/10 11:10:57;;;;;;;31.20;23.30;;;7.10;69.10;;;;;;5019034;28;20488;-81
2020/12/10 11:13:23;;;;;;;33.53;23.50;;;7.20;69.40;;;;;;5021328;28;20128;-81
2020/12/10 11:15:49;;;;;;;27.00;18.97;;;7.20;69.20;;;;;;5021584;28;20033;-81
2020/12/10 11:18:14;;;;;;;28.70;20.47;;;7.30;69.10;;;;;;5022585;28;20036;-81
2020/12/10 11:20:40;;;;;;;32.07;22.13;;;7.30;69.20;;;;;;5022815;28;20039;-81
2020/12/10 11:23:06;;;;;;;31.13;22.27;;;7.30;68.90;;;;;;5020444;28;20061;-81
2020/12/10 11:25:31;;;;;;;35.40;22.80;;;7.30;68.80;;;;;;5020185;28;20459;-81
2020/12/10 11:27:57;;;;;;;32.10;23.40;;;7.30;68.70;;;;;;5018835;28;20083;-81
2020/12/10 11:30:23;;;;;;;33.87;24.17;;;7.30;68.70;;;;;;5025103;28;20021;-81
2020/12/10 11:32:49;;;;;;;31.37;22.77;;;7.30;68.80;;;;;;5027138;28;20354;-81
2020/12/10 11:35:15;;;;;;;36.83;25.23;;;7.40;69.00;;;;;;5012401;28;20113;-81
2020/12/10 11:37:40;;;;;;;33.17;25.13;;;7.30;68.80;;;;;;5018298;28;20377;-81
2020/12/10 11:40:06;;;;;;;33.80;23.37;;;7.30;68.90;;;;;;5023641;28;20037;-81
2020/12/10 11:42:32;;;;;;;29.47;21.90;;;7.30;68.70;;;;;;5019684;28;20087;-81
2020/12/10 11:45:00;;;;;;;28.30;20.70;;;7.40;68.70;;;;;;5016124;28;20053;-81
2020/12/10 11:47:27;;;;;;;29.67;21.67;;;7.40;68.70;;;;;;5013392;28;20029;-81
2020/12/10 11:49:53;;;;;;;31.10;21.17;;;7.40;68.60;;;;;;5024471;28;20388;-81
2020/12/10 11:52:19;;;;;;;33.17;21.53;;;7.40;68.50;;;;;;5022146;28;20040;-81
2020/12/10 11:54:45;;;;;;;30.77;21.87;;;7.50;68.40;;;;;;5015078;28;20411;-81
2020/12/10 11:57:11;;;;;;;27.03;20.30;;;7.60;68.10;;;;;;5022229;28;20029;-81
2020/12/10 11:59:37;;;;;;;28.37;21.77;;;7.70;67.80;;;;;;5014032;28;20080;-81
2020/12/10 12:02:05;;;;;;;27.20;20.67;;;7.80;67.60;;;;;;5022344;28;20425;-81
2020/12/10 12:04:32;;;;;;;28.43;19.80;;;7.80;67.30;;;;;;5023065;28;20032;-81
2020/12/10 12:06:57;;;;;;;28.00;19.73;;;7.90;67.00;;;;;;5021943;28;20065;-81
2020/12/10 12:09:23;;;;;;;30.07;21.00;;;7.90;66.80;;;;;;5019647;28;20064;-82
2020/12/10 12:11:49;;;;;;;27.87;20.40;;;7.90;66.60;;;;;;5029924;28;20578;-81
2020/12/10 12:14:14;;;;;;;30.23;20.83;;;7.90;66.70;;;;;;5027351;28;20735;-82
2020/12/10 12:16:45;;;;;;;31.67;23.07;;;8.00;67.00;;;;;;5019137;28;20053;-81
2020/12/10 12:19:11;;;;;;;27.70;20.63;;;8.10;66.60;;;;;;5017387;28;20415;-81
2020/12/10 12:21:37;;;;;;;26.57;19.13;;;8.20;66.60;;;;;;5015741;28;20017;-81
2020/12/10 12:24:02;;;;;;;27.80;19.40;;;8.30;66.00;;;;;;5019214;28;20423;-81
2020/12/10 12:26:30;;;;;;;25.23;18.43;;;8.20;65.70;;;;;;5016392;28;20033;-80
2020/12/10 12:28:56;;;;;;;28.73;21.03;;;8.10;65.90;;;;;;5016019;28;20064;-81
2020/12/10 12:31:32;;;;;;;28.10;19.93;;;8.10;66.30;;;;;;5021052;28;20068;-81
2020/12/10 12:33:58;;;;;;;29.40;19.50;;;8.10;66.00;;;;;;5011301;28;20026;-81
2020/12/10 12:36:24;;;;;;;27.77;19.47;;;8.10;65.70;;;;;;5015353;28;20025;-81
2020/12/10 12:38:50;;;;;;;26.33;19.00;;;8.00;66.10;;;;;;5018656;28;20468;-81